Time;durP1;ratioP1;P1;durP2;ratioP2;P2;SDS_P1;SDS_P2;PMS_P1;PMS_P2;Temp;Humidity;BMP_temperature;BMP_pressure;BME280_temperature;BME280_humidity;BME280_pressure;Samples;Min_cycle;Max_cycle;Signal;HPM_P1;HPM_P2
2023/01/19 00:01:34;;;;;;;;;;;18.80;40.00;;;;;;5075477;28;19921;-62
2023/01/19 00:04:01;;;;;;;;;;;18.80;40.10;;;;;;5047787;28;19975;-62
2023/01/19 00:06:30;;;;;;;;;;;18.80;40.10;;;;;;5048300;28;19980;-62
2023/01/19 00:08:56;;;;;;;;;;;18.80;40.10;;;;;;5051441;28;19931;-62
2023/01/19 00:11:23;;;;;;;;;;;18.80;40.10;;;;;;5050678;28;20348;-64
2023/01/19 00:13:50;;;;;;;;;;;18.80;40.10;;;;;;5047807;28;19924;-62
2023/01/19 00:16:17;;;;;;;;;;;18.80;40.10;;;;;;5073914;28;20023;-61
2023/01/19 00:18:44;;;;;;;;;;;18.80;40.10;;;;;;5051656;28;19932;-62
2023/01/19 00:21:10;;;;;;;;;;;18.80;40.10;;;;;;5049556;28;19945;-62
2023/01/19 00:23:38;;;;;;;;;;;18.80;40.10;;;;;;5051947;28;19928;-62
2023/01/19 00:26:05;;;;;;;;;;;18.80;40.10;;;;;;5049515;28;19921;-62
2023/01/19 00:28:32;;;;;;;;;;;18.80;40.10;;;;;;5049680;28;20041;-63
2023/01/19 00:30:59;;;;;;;;;;;18.80;40.10;;;;;;5050749;28;19924;-62
2023/01/19 00:33:26;;;;;;;;;;;18.80;40.20;;;;;;5049455;28;20367;-62
2023/01/19 00:35:53;;;;;;;;;;;18.80;40.10;;;;;;5077993;28;20371;-62
2023/01/19 00:38:20;;;;;;;;;;;18.80;40.20;;;;;;5044058;28;19932;-62
2023/01/19 00:40:48;;;;;;;;;;;18.80;40.20;;;;;;5060323;28;19932;-61
2023/01/19 00:43:14;;;;;;;;;;;18.80;40.20;;;;;;5059436;28;20282;-65
2023/01/19 00:45:41;;;;;;;;;;;18.80;40.20;;;;;;5049881;28;20430;-63
2023/01/19 00:48:08;;;;;;;;;;;18.80;40.20;;;;;;5049311;28;19925;-62
2023/01/19 00:50:35;;;;;;;;;;;18.80;40.20;;;;;;5050353;28;19925;-63
2023/01/19 00:53:02;;;;;;;;;;;18.80;40.20;;;;;;5054017;28;19933;-62
2023/01/19 00:55:29;;;;;;;;;;;18.80;40.20;;;;;;5049623;28;19932;-62
2023/01/19 00:57:57;;;;;;;;;;;18.80;40.20;;;;;;5049594;28;20354;-62
2023/01/19 01:00:24;;;;;;;;;;;18.80;40.20;;;;;;5075314;28;19968;-64
2023/01/19 01:02:51;;;;;;;;;;;18.80;40.20;;;;;;5070675;28;19987;-63
2023/01/19 01:05:17;;;;;;;;;;;18.80;40.30;;;;;;5044846;28;20373;-64
2023/01/19 01:07:44;;;;;;;;;;;18.80;40.20;;;;;;5058506;28;19960;-63
2023/01/19 01:10:11;;;;;;;;;;;18.80;40.20;;;;;;5041267;28;19924;-63
2023/01/19 01:12:38;;;;;;;;;;;18.80;40.30;;;;;;5049404;28;19925;-63
2023/01/19 01:15:08;;;;;;;;;;;18.80;40.30;;;;;;5048392;28;19978;-63
2023/01/19 01:17:34;;;;;;;;;;;18.80;40.30;;;;;;5047092;28;19921;-63
2023/01/19 01:20:03;;;;;;;;;;;18.80;40.30;;;;;;5048695;28;19943;-63
2023/01/19 01:22:30;;;;;;;;;;;18.80;40.30;;;;;;5049146;28;19968;-64
2023/01/19 01:24:56;;;;;;;;;;;18.80;40.30;;;;;;5048651;28;19982;-64
2023/01/19 01:27:23;;;;;;;;;;;18.80;40.90;;;;;;5048761;28;19924;-62
2023/01/19 01:29:50;;;;;;;;;;;18.80;40.30;;;;;;5048122;28;19925;-62
2023/01/19 01:32:18;;;;;;;;;;;18.80;40.30;;;;;;5074251;28;19932;-63
2023/01/19 01:34:45;;;;;;;;;;;18.80;40.30;;;;;;5073903;28;19974;-63
2023/01/19 01:37:12;;;;;;;;;;;18.80;40.30;;;;;;5049826;28;19982;-63
2023/01/19 01:39:39;;;;;;;;;;;18.80;40.30;;;;;;5043889;28;20424;-63
2023/01/19 01:42:09;;;;;;;;;;;18.80;40.30;;;;;;5046867;28;19927;-63
2023/01/19 01:44:48;;;;;;;;;;;18.80;40.90;;;;;;5047690;28;19982;-63
2023/01/19 01:47:16;;;;;;;;;;;18.80;40.30;;;;;;5054475;28;19920;-64
2023/01/19 01:49:44;;;;;;;;;;;18.80;40.30;;;;;;5048282;28;20335;-63
2023/01/19 01:52:11;;;;;;;;;;;18.80;40.30;;;;;;5045102;28;19956;-65
2023/01/19 01:54:37;;;;;;;;;;;18.80;40.30;;;;;;5050217;28;19928;-62
2023/01/19 01:57:05;;;;;;;;;;;18.80;40.30;;;;;;5047762;28;19931;-62
2023/01/19 01:59:37;;;;;;;;;;;18.80;40.30;;;;;;5055933;28;19975;-62
2023/01/19 02:04:52;;;;;;;;;;;18.80;40.40;;;;;;5045615;28;19935;-65
2023/01/19 02:15:33;;;;;;;;;;;18.80;40.40;;;;;;5071009;28;19964;-62
2023/01/19 02:18:00;;;;;;;;;;;18.80;40.40;;;;;;5072923;28;20369;-65
2023/01/19 02:20:28;;;;;;;;;;;18.80;40.40;;;;;;5045751;28;19960;-64
2023/01/19 02:22:55;;;;;;;;;;;18.80;40.40;;;;;;5052023;28;19928;-62
2023/01/19 02:25:24;;;;;;;;;;;18.80;40.50;;;;;;5048283;28;19921;-64
2023/01/19 02:27:51;;;;;;;;;;;18.80;40.40;;;;;;5048576;28;19928;-62
2023/01/19 02:30:18;;;;;;;;;;;18.80;40.40;;;;;;5043235;28;19921;-63
2023/01/19 02:32:45;;;;;;;;;;;18.80;40.40;;;;;;5048114;28;19932;-63
2023/01/19 02:35:11;;;;;;;;;;;18.80;40.50;;;;;;5045456;28;19924;-65
2023/01/19 02:37:39;;;;;;;;;;;18.80;40.50;;;;;;5048500;28;19990;-62
2023/01/19 02:40:08;;;;;;;;;;;18.80;40.80;;;;;;5047329;28;19921;-62
2023/01/19 02:42:36;;;;;;;;;;;18.80;40.50;;;;;;5046274;28;19926;-63
2023/01/19 02:45:05;;;;;;;;;;;18.80;40.50;;;;;;5048150;28;19932;-62
2023/01/19 02:47:37;;;;;;;;;;;18.80;40.50;;;;;;5046892;28;20344;-63
2023/01/19 02:50:04;;;;;;;;;;;18.80;40.50;;;;;;5047441;28;19921;-64
2023/01/19 02:52:31;;;;;;;;;;;18.80;40.50;;;;;;5059895;28;20004;-64
2023/01/19 02:55:00;;;;;;;;;;;18.80;40.50;;;;;;5048475;28;19929;-63
2023/01/19 02:57:30;;;;;;;;;;;18.80;40.60;;;;;;5052403;28;19921;-63
2023/01/19 03:00:02;;;;;;;;;;;18.80;40.50;;;;;;5051754;28;19952;-63
2023/01/19 03:02:32;;;;;;;;;;;18.80;40.50;;;;;;5073955;28;19927;-62
2023/01/19 03:05:18;;;;;;;;;;;18.80;40.60;;;;;;5058677;28;20043;-63
2023/01/19 03:07:49;;;;;;;;;;;18.80;40.60;;;;;;5050898;28;19929;-63
2023/01/19 03:10:17;;;;;;;;;;;18.80;40.60;;;;;;5079238;28;20010;-63
2023/01/19 03:12:44;;;;;;;;;;;18.80;40.60;;;;;;5052195;28;19978;-63
2023/01/19 03:15:14;;;;;;;;;;;18.80;40.60;;;;;;5045449;28;20378;-63
2023/01/19 03:17:41;;;;;;;;;;;18.80;40.60;;;;;;5051715;28;19921;-65
2023/01/19 03:20:08;;;;;;;;;;;18.80;40.60;;;;;;5048403;28;19925;-63
2023/01/19 03:22:35;;;;;;;;;;;18.80;40.60;;;;;;5078871;28;19977;-64
2023/01/19 03:25:02;;;;;;;;;;;18.80;40.60;;;;;;5050818;28;19929;-63
2023/01/19 03:27:29;;;;;;;;;;;18.80;40.60;;;;;;5051753;28;19924;-63
2023/01/19 03:29:57;;;;;;;;;;;18.80;40.70;;;;;;5048217;28;19986;-64
2023/01/19 03:32:28;;;;;;;;;;;18.80;40.60;;;;;;5052033;28;19942;-64
2023/01/19 03:34:55;;;;;;;;;;;18.80;40.60;;;;;;5051299;28;19921;-64
2023/01/19 03:37:22;;;;;;;;;;;18.80;40.70;;;;;;5051724;28;20366;-64
2023/01/19 03:39:48;;;;;;;;;;;18.80;40.60;;;;;;5047125;28;20372;-64
2023/01/19 03:42:15;;;;;;;;;;;18.80;40.70;;;;;;5051376;28;19927;-63
2023/01/19 03:44:42;;;;;;;;;;;18.80;40.70;;;;;;5051819;28;19944;-65
2023/01/19 03:47:09;;;;;;;;;;;18.80;40.70;;;;;;5052367;28;19964;-61
2023/01/19 03:49:38;;;;;;;;;;;18.80;40.70;;;;;;5049201;28;19925;-62
2023/01/19 03:52:04;;;;;;;;;;;18.80;40.70;;;;;;5051596;28;19920;-63
2023/01/19 03:54:31;;;;;;;;;;;18.80;40.70;;;;;;5052646;28;19979;-62
2023/01/19 03:56:58;;;;;;;;;;;18.80;40.70;;;;;;5049382;28;19968;-62
2023/01/19 03:59:25;;;;;;;;;;;18.80;40.70;;;;;;5051534;28;19951;-62
2023/01/19 04:01:51;;;;;;;;;;;18.80;40.70;;;;;;5050754;28;19970;-63
2023/01/19 04:04:18;;;;;;;;;;;18.80;40.70;;;;;;5047386;28;19925;-62
2023/01/19 04:06:46;;;;;;;;;;;18.80;40.70;;;;;;5051844;28;19974;-63
2023/01/19 04:09:13;;;;;;;;;;;18.80;40.70;;;;;;5050046;28;19921;-63
2023/01/19 04:11:40;;;;;;;;;;;18.80;40.80;;;;;;5051757;28;19921;-63
2023/01/19 04:14:06;;;;;;;;;;;18.80;40.80;;;;;;5051262;28;19967;-64
2023/01/19 04:16:33;;;;;;;;;;;18.80;40.80;;;;;;5050115;28;19978;-63
2023/01/19 04:19:00;;;;;;;;;;;18.80;40.80;;;;;;5049074;28;20321;-62
2023/01/19 04:21:26;;;;;;;;;;;18.80;40.80;;;;;;5062419;28;20006;-64
2023/01/19 04:23:55;;;;;;;;;;;18.80;40.80;;;;;;5049284;28;20413;-63
2023/01/19 04:26:21;;;;;;;;;;;18.80;40.80;;;;;;5053295;28;19921;-62
2023/01/19 04:28:48;;;;;;;;;;;18.80;40.80;;;;;;5050753;28;19921;-63
2023/01/19 04:31:15;;;;;;;;;;;18.80;40.80;;;;;;5048220;28;19995;-64
2023/01/19 04:33:41;;;;;;;;;;;18.80;40.80;;;;;;5062899;28;19967;-63
2023/01/19 04:36:08;;;;;;;;;;;18.80;40.80;;;;;;5047515;28;19920;-63
2023/01/19 04:38:35;;;;;;;;;;;18.80;40.80;;;;;;5051386;28;19936;-63
2023/01/19 04:41:03;;;;;;;;;;;18.80;40.80;;;;;;5064231;28;19925;-63
2023/01/19 04:43:30;;;;;;;;;;;18.80;40.90;;;;;;5050249;28;19921;-62
2023/01/19 04:45:57;;;;;;;;;;;18.80;40.90;;;;;;5051476;28;20398;-63
2023/01/19 04:48:24;;;;;;;;;;;18.80;40.90;;;;;;5046962;28;19975;-63
2023/01/19 04:50:51;;;;;;;;;;;18.80;40.90;;;;;;5049811;28;20252;-62
2023/01/19 04:53:17;;;;;;;;;;;18.80;40.90;;;;;;5051776;28;19925;-64
2023/01/19 04:55:45;;;;;;;;;;;18.80;40.90;;;;;;5050901;28;19921;-63
2023/01/19 04:58:14;;;;;;;;;;;18.80;40.90;;;;;;5049854;28;19974;-63
2023/01/19 05:00:41;;;;;;;;;;;18.80;40.90;;;;;;5046488;28;19920;-62
2023/01/19 05:03:08;;;;;;;;;;;18.80;40.90;;;;;;5043660;28;19925;-65
2023/01/19 05:05:35;;;;;;;;;;;18.80;40.90;;;;;;5049681;28;19920;-64
2023/01/19 05:08:01;;;;;;;;;;;18.80;40.90;;;;;;5050043;28;19982;-64
2023/01/19 05:10:28;;;;;;;;;;;18.80;40.90;;;;;;5054118;28;19979;-64
2023/01/19 05:12:55;;;;;;;;;;;18.80;40.90;;;;;;5076901;28;19925;-63
2023/01/19 05:15:23;;;;;;;;;;;18.80;40.90;;;;;;5046961;28;19924;-63
2023/01/19 05:17:51;;;;;;;;;;;18.80;40.90;;;;;;5049175;28;19924;-63
2023/01/19 05:20:18;;;;;;;;;;;18.80;40.90;;;;;;5049421;28;19929;-65
2023/01/19 05:22:48;;;;;;;;;;;18.80;40.90;;;;;;5048868;28;20231;-62
2023/01/19 05:25:15;;;;;;;;;;;18.80;40.90;;;;;;5049033;28;19932;-63
2023/01/19 05:27:41;;;;;;;;;;;18.80;40.90;;;;;;5050864;28;20264;-63
2023/01/19 05:30:09;;;;;;;;;;;18.80;40.90;;;;;;5052166;28;19920;-64
2023/01/19 05:32:37;;;;;;;;;;;18.80;40.90;;;;;;5047689;28;20002;-63
2023/01/19 05:35:04;;;;;;;;;;;18.80;40.90;;;;;;5047955;28;19924;-63
2023/01/19 05:37:31;;;;;;;;;;;18.80;41.00;;;;;;5047547;28;19921;-63
2023/01/19 05:39:58;;;;;;;;;;;18.80;40.90;;;;;;5047413;28;19920;-64
2023/01/19 05:42:25;;;;;;;;;;;18.80;41.00;;;;;;5074181;28;19936;-63
2023/01/19 05:44:52;;;;;;;;;;;18.80;41.00;;;;;;5056583;28;19956;-64
2023/01/19 05:47:18;;;;;;;;;;;18.80;41.00;;;;;;5044508;28;19967;-63
2023/01/19 05:49:46;;;;;;;;;;;18.80;40.90;;;;;;5049266;28;19920;-64
2023/01/19 05:52:13;;;;;;;;;;;18.80;41.00;;;;;;5048250;28;19921;-62
2023/01/19 05:54:40;;;;;;;;;;;18.80;41.00;;;;;;5047998;28;20015;-61
2023/01/19 05:57:07;;;;;;;;;;;18.80;41.00;;;;;;5057350;28;20286;-63
2023/01/19 05:59:34;;;;;;;;;;;18.80;41.00;;;;;;5047064;28;19974;-63
2023/01/19 06:02:01;;;;;;;;;;;18.80;41.00;;;;;;5046994;28;20011;-63
2023/01/19 06:04:27;;;;;;;;;;;18.80;41.00;;;;;;5041340;28;19971;-63
2023/01/19 06:06:55;;;;;;;;;;;18.80;41.00;;;;;;5050390;28;19933;-63
2023/01/19 06:09:22;;;;;;;;;;;18.80;41.00;;;;;;5047239;28;19966;-62
2023/01/19 06:11:49;;;;;;;;;;;18.80;41.00;;;;;;5047996;28;19928;-63
2023/01/19 06:14:16;;;;;;;;;;;18.80;41.00;;;;;;5046761;28;19920;-63
2023/01/19 06:16:42;;;;;;;;;;;18.80;41.00;;;;;;5046441;28;19963;-64
2023/01/19 06:19:09;;;;;;;;;;;18.80;41.00;;;;;;5042933;28;19921;-62
2023/01/19 06:21:36;;;;;;;;;;;18.80;41.00;;;;;;5035887;28;19925;-63
2023/01/19 06:24:05;;;;;;;;;;;18.80;41.10;;;;;;5076600;28;19968;-62
2023/01/19 06:26:32;;;;;;;;;;;18.80;41.20;;;;;;5046887;28;19932;-62
2023/01/19 06:28:58;;;;;;;;;;;18.80;41.20;;;;;;5047967;28;19975;-63
2023/01/19 06:31:25;;;;;;;;;;;18.80;41.20;;;;;;5049579;28;19929;-62
2023/01/19 06:33:52;;;;;;;;;;;18.80;41.20;;;;;;5046624;28;19966;-63
2023/01/19 06:36:19;;;;;;;;;;;18.80;41.30;;;;;;5041955;28;19948;-63
2023/01/19 06:38:46;;;;;;;;;;;18.80;41.40;;;;;;5047578;28;19921;-62
2023/01/19 06:41:14;;;;;;;;;;;18.80;41.40;;;;;;5047837;28;19927;-62
2023/01/19 06:43:41;;;;;;;;;;;18.80;41.40;;;;;;5081713;28;19921;-63
2023/01/19 06:46:10;;;;;;;;;;;18.80;41.40;;;;;;5073984;28;19932;-63
2023/01/19 06:48:37;;;;;;;;;;;18.90;41.50;;;;;;5049574;28;19968;-65
2023/01/19 06:51:04;;;;;;;;;;;18.90;41.50;;;;;;5047559;28;19971;-64
2023/01/19 06:53:31;;;;;;;;;;;18.90;41.50;;;;;;5047868;28;19920;-62
2023/01/19 06:55:58;;;;;;;;;;;18.90;41.50;;;;;;5047213;28;19933;-64
2023/01/19 06:58:26;;;;;;;;;;;18.90;41.40;;;;;;5047054;28;19924;-62
2023/01/19 07:00:53;;;;;;;;;;;18.90;41.40;;;;;;5086178;28;19925;-62
2023/01/19 07:03:20;;;;;;;;;;;18.90;41.50;;;;;;5070304;28;19928;-63
2023/01/19 07:05:48;;;;;;;;;;;18.90;41.50;;;;;;5048434;28;19920;-62
2023/01/19 07:08:15;;;;;;;;;;;18.90;41.50;;;;;;5043603;28;19921;-65
2023/01/19 07:10:42;;;;;;;;;;;18.90;41.50;;;;;;5049607;28;20389;-62
2023/01/19 07:13:09;;;;;;;;;;;18.90;41.50;;;;;;5047194;28;19931;-61
2023/01/19 07:15:37;;;;;;;;;;;18.90;41.50;;;;;;5048500;28;19954;-63
2023/01/19 07:18:06;;;;;;;;;;;18.90;41.50;;;;;;5048034;28;19927;-62
2023/01/19 07:20:33;;;;;;;;;;;18.90;41.50;;;;;;5048791;28;19921;-61
2023/01/19 07:23:00;;;;;;;;;;;18.90;41.50;;;;;;5048631;28;20081;-62
2023/01/19 07:25:27;;;;;;;;;;;18.90;41.50;;;;;;5082285;28;19975;-63
2023/01/19 07:27:56;;;;;;;;;;;18.90;41.50;;;;;;5056807;28;20023;-62
2023/01/19 07:30:23;;;;;;;;;;;18.90;41.50;;;;;;5048629;28;19967;-60
2023/01/19 07:32:51;;;;;;;;;;;18.90;41.60;;;;;;5048181;28;19971;-63
2023/01/19 07:35:18;;;;;;;;;;;18.90;41.60;;;;;;5078652;28;19947;-62
2023/01/19 07:37:44;;;;;;;;;;;18.90;41.50;;;;;;5050732;28;20028;-62
2023/01/19 07:40:12;;;;;;;;;;;18.90;41.60;;;;;;5085322;28;19974;-62
2023/01/19 07:42:38;;;;;;;;;;;18.90;41.60;;;;;;5051934;28;19921;-63
2023/01/19 07:45:09;;;;;;;;;;;18.80;41.40;;;;;;5051988;28;20401;-62
2023/01/19 07:47:35;;;;;;;;;;;18.80;41.40;;;;;;5051160;28;19920;-63
2023/01/19 07:50:03;;;;;;;;;;;18.90;41.50;;;;;;5084853;28;19924;-63
2023/01/19 07:52:30;;;;;;;;;;;18.80;41.40;;;;;;5081800;28;19940;-62
2023/01/19 07:54:58;;;;;;;;;;;18.80;41.50;;;;;;5085157;28;19920;-62
2023/01/19 07:57:24;;;;;;;;;;;18.80;41.40;;;;;;5053034;28;19928;-62
2023/01/19 07:59:51;;;;;;;;;;;18.80;41.40;;;;;;5085044;28;19982;-62
2023/01/19 08:02:18;;;;;;;;;;;18.80;41.40;;;;;;5051296;28;20010;-63
2023/01/19 08:04:47;;;;;;;;;;;18.90;41.50;;;;;;5084698;28;19924;-62
2023/01/19 08:07:15;;;;;;;;;;;18.80;41.50;;;;;;5051886;28;19933;-63
2023/01/19 08:09:42;;;;;;;;;;;18.90;41.50;;;;;;5083535;28;19964;-63
2023/01/19 08:12:08;;;;;;;;;;;18.80;41.40;;;;;;5083930;28;20066;-62
2023/01/19 08:14:35;;;;;;;;;;;18.90;41.60;;;;;;5084873;28;19921;-63
2023/01/19 08:17:02;;;;;;;;;;;18.80;41.50;;;;;;5050766;28;19920;-63
2023/01/19 08:19:29;;;;;;;;;;;18.80;41.50;;;;;;5084730;28;19925;-63
2023/01/19 08:21:57;;;;;;;;;;;18.80;41.40;;;;;;5084152;28;19928;-63
2023/01/19 08:24:27;;;;;;;;;;;18.80;41.40;;;;;;5051375;28;19921;-63
2023/01/19 08:26:58;;;;;;;;;;;18.80;41.50;;;;;;5067524;28;19964;-63
2023/01/19 08:29:24;;;;;;;;;;;18.80;41.50;;;;;;5050689;28;19924;-63
2023/01/19 08:31:52;;;;;;;;;;;18.90;41.60;;;;;;5052047;28;19925;-64
2023/01/19 08:34:18;;;;;;;;;;;18.80;41.50;;;;;;5052119;28;19920;-63
2023/01/19 08:36:45;;;;;;;;;;;18.80;41.50;;;;;;5050673;28;20283;-63
2023/01/19 08:39:12;;;;;;;;;;;18.80;41.50;;;;;;5051697;28;19925;-63
2023/01/19 08:41:40;;;;;;;;;;;18.80;41.50;;;;;;5050677;28;19952;-63
2023/01/19 08:44:07;;;;;;;;;;;18.80;41.50;;;;;;5067074;28;19937;-63
2023/01/19 08:46:34;;;;;;;;;;;18.80;41.40;;;;;;5030770;28;19921;-64
2023/01/19 08:49:00;;;;;;;;;;;18.80;41.50;;;;;;5045217;28;19933;-62
2023/01/19 08:51:27;;;;;;;;;;;18.90;41.60;;;;;;5051618;28;19921;-62
2023/01/19 08:53:54;;;;;;;;;;;18.90;41.60;;;;;;5065277;28;19927;-61
2023/01/19 08:56:20;;;;;;;;;;;18.90;41.60;;;;;;5070359;28;19920;-64
2023/01/19 08:58:49;;;;;;;;;;;18.90;41.60;;;;;;5056931;28;20429;-61
2023/01/19 09:01:17;;;;;;;;;;;18.90;41.60;;;;;;5083804;28;19925;-63
2023/01/19 09:03:44;;;;;;;;;;;18.90;41.60;;;;;;5049977;28;19921;-62
2023/01/19 09:06:11;;;;;;;;;;;18.80;41.50;;;;;;5051645;28;20321;-63
2023/01/19 09:08:38;;;;;;;;;;;18.80;41.50;;;;;;5049895;28;20008;-64
2023/01/19 09:11:06;;;;;;;;;;;18.90;41.60;;;;;;5049753;28;19978;-63
2023/01/19 09:13:33;;;;;;;;;;;18.80;41.50;;;;;;5050163;28;20274;-62
2023/01/19 09:16:03;;;;;;;;;;;18.90;41.60;;;;;;5050154;28;19925;-64
2023/01/19 09:18:30;;;;;;;;;;;18.90;41.60;;;;;;5049522;28;19931;-63
2023/01/19 09:20:57;;;;;;;;;;;18.90;41.60;;;;;;5083237;28;19920;-63
2023/01/19 09:23:24;;;;;;;;;;;18.90;41.60;;;;;;5050067;28;19970;-62
2023/01/19 09:25:55;;;;;;;;;;;18.90;41.60;;;;;;5049902;28;19921;-64
2023/01/19 09:28:22;;;;;;;;;;;18.90;41.60;;;;;;5083009;28;19921;-62
2023/01/19 09:30:49;;;;;;;;;;;18.90;41.60;;;;;;5049685;28;19971;-63
2023/01/19 09:33:17;;;;;;;;;;;18.90;41.60;;;;;;5050547;28;19967;-63
2023/01/19 09:35:44;;;;;;;;;;;18.90;41.60;;;;;;5045672;28;19991;-63
2023/01/19 09:38:11;;;;;;;;;;;18.90;41.70;;;;;;5062787;28;19970;-62
2023/01/19 09:40:41;;;;;;;;;;;18.90;41.60;;;;;;5082620;28;19963;-64
2023/01/19 09:43:12;;;;;;;;;;;18.90;41.60;;;;;;5049533;28;19956;-63
2023/01/19 09:45:39;;;;;;;;;;;18.90;41.60;;;;;;5066342;28;19993;-62
2023/01/19 09:48:19;;;;;;;;;;;18.90;41.60;;;;;;5049427;28;20351;-63
2023/01/19 09:50:48;;;;;;;;;;;18.90;41.60;;;;;;5050308;28;19921;-63
2023/01/19 09:53:16;;;;;;;;;;;18.90;41.60;;;;;;5049467;28;19921;-63
2023/01/19 09:55:42;;;;;;;;;;;18.90;41.60;;;;;;5049375;28;19978;-63
2023/01/19 09:58:10;;;;;;;;;;;18.90;41.70;;;;;;5050327;28;19924;-63
2023/01/19 10:00:37;;;;;;;;;;;18.90;41.70;;;;;;5048224;28;19971;-64
2023/01/19 10:03:06;;;;;;;;;;;18.90;41.70;;;;;;5049904;28;19940;-64
2023/01/19 10:05:34;;;;;;;;;;;18.90;41.70;;;;;;5049377;28;19920;-63
2023/01/19 10:08:07;;;;;;;;;;;18.90;41.70;;;;;;5048821;28;20042;-63
2023/01/19 10:10:34;;;;;;;;;;;18.90;41.70;;;;;;5082642;28;19971;-64
2023/01/19 10:13:03;;;;;;;;;;;18.90;41.70;;;;;;5048653;28;19972;-64
2023/01/19 10:15:34;;;;;;;;;;;18.90;41.70;;;;;;5050505;28;19921;-64
2023/01/19 10:18:04;;;;;;;;;;;18.90;41.70;;;;;;5048628;28;19947;-64
2023/01/19 10:20:32;;;;;;;;;;;18.90;41.70;;;;;;5081857;28;19928;-63
2023/01/19 10:22:59;;;;;;;;;;;18.90;41.70;;;;;;5048686;28;19920;-63
2023/01/19 10:25:27;;;;;;;;;;;18.90;41.70;;;;;;5048742;28;19986;-62
2023/01/19 10:27:54;;;;;;;;;;;18.90;41.80;;;;;;5048611;28;19921;-62
2023/01/19 10:30:22;;;;;;;;;;;18.90;41.80;;;;;;5082286;28;19925;-64
2023/01/19 10:32:49;;;;;;;;;;;18.90;41.80;;;;;;5081995;28;19971;-64
2023/01/19 10:35:22;;;;;;;;;;;18.90;41.80;;;;;;5062120;28;20264;-63
2023/01/19 10:37:48;;;;;;;;;;;18.90;41.80;;;;;;5028661;28;19933;-63
2023/01/19 10:40:18;;;;;;;;;;;18.90;41.80;;;;;;5049286;28;19952;-63
2023/01/19 10:42:47;;;;;;;;;;;18.90;41.80;;;;;;5048654;28;19925;-63
2023/01/19 10:45:15;;;;;;;;;;;18.90;41.80;;;;;;5049488;28;20290;-64
2023/01/19 10:47:41;;;;;;;;;;;18.90;41.80;;;;;;5048196;28;19991;-64
2023/01/19 10:50:21;;;;;;;;;;;18.90;41.80;;;;;;5048276;28;19921;-63
2023/01/19 10:52:49;;;;;;;;;;;18.90;41.80;;;;;;5081819;28;19927;-63
2023/01/19 10:55:22;;;;;;;;;;;18.90;41.80;;;;;;5081825;28;19921;-63
2023/01/19 10:57:52;;;;;;;;;;;18.90;41.80;;;;;;5048668;28;19921;-63
2023/01/19 11:00:28;;;;;;;;;;;18.90;41.80;;;;;;5048116;28;19928;-63
2023/01/19 11:02:55;;;;;;;;;;;18.90;41.80;;;;;;5048152;28;19991;-63
2023/01/19 11:05:23;;;;;;;;;;;18.90;41.90;;;;;;5048330;28;19924;-64
2023/01/19 11:07:49;;;;;;;;;;;18.90;41.90;;;;;;5049867;28;19921;-63
2023/01/19 11:10:20;;;;;;;;;;;18.90;41.90;;;;;;5048290;28;19921;-64
2023/01/19 11:12:47;;;;;;;;;;;18.90;41.90;;;;;;5084927;28;19986;-63
2023/01/19 11:15:16;;;;;;;;;;;18.90;41.90;;;;;;5085377;28;19921;-63
2023/01/19 11:17:43;;;;;;;;;;;18.90;41.90;;;;;;5053069;28;20024;-64
2023/01/19 11:20:13;;;;;;;;;;;18.90;41.90;;;;;;5085235;28;19923;-63
2023/01/19 11:22:40;;;;;;;;;;;18.90;41.90;;;;;;5051852;28;19924;-64
2023/01/19 11:25:19;;;;;;;;;;;18.90;41.90;;;;;;5053349;28;19920;-64
2023/01/19 11:27:48;;;;;;;;;;;18.90;42.00;;;;;;5085763;28;19952;-64
2023/01/19 11:30:17;;;;;;;;;;;18.90;42.00;;;;;;5050678;28;19920;-64
2023/01/19 11:32:44;;;;;;;;;;;18.90;42.00;;;;;;5051045;28;19921;-63
2023/01/19 11:35:30;;;;;;;;;;;18.90;42.00;;;;;;5051919;28;20448;-64
2023/01/19 11:38:04;;;;;;;;;;;18.90;42.00;;;;;;5052024;28;19979;-63
2023/01/19 11:40:31;;;;;;;;;;;18.90;42.00;;;;;;5085056;28;19967;-64
2023/01/19 11:42:58;;;;;;;;;;;18.90;42.00;;;;;;5053149;28;19974;-64
2023/01/19 11:45:26;;;;;;;;;;;18.90;42.10;;;;;;5051774;28;20366;-64
2023/01/19 11:47:53;;;;;;;;;;;18.90;42.10;;;;;;5051842;28;20035;-64
2023/01/19 11:50:22;;;;;;;;;;;18.90;42.10;;;;;;5051713;28;19928;-64
2023/01/19 11:52:52;;;;;;;;;;;18.90;42.10;;;;;;5051689;28;19921;-63
2023/01/19 11:55:20;;;;;;;;;;;18.90;42.10;;;;;;5051737;28;20012;-63
2023/01/19 11:57:47;;;;;;;;;;;18.90;42.10;;;;;;5085105;28;20449;-64
2023/01/19 12:00:19;;;;;;;;;;;18.90;42.10;;;;;;5051437;28;19928;-64
2023/01/19 12:02:47;;;;;;;;;;;18.90;42.10;;;;;;5085039;28;19921;-64
2023/01/19 12:05:15;;;;;;;;;;;18.90;42.10;;;;;;5084646;28;19921;-64
2023/01/19 12:07:41;;;;;;;;;;;18.90;42.10;;;;;;5051764;28;20352;-64
2023/01/19 12:10:13;;;;;;;;;;;18.90;42.10;;;;;;5052534;28;19925;-64
2023/01/19 12:12:40;;;;;;;;;;;18.90;42.10;;;;;;5052416;28;19920;-64
2023/01/19 12:15:07;;;;;;;;;;;18.90;42.10;;;;;;5052741;28;20037;-66
2023/01/19 12:17:35;;;;;;;;;;;18.90;42.20;;;;;;5051003;28;19956;-65
2023/01/19 12:20:05;;;;;;;;;;;18.90;42.10;;;;;;5084085;28;19920;-64
2023/01/19 12:22:34;;;;;;;;;;;18.90;42.20;;;;;;5052596;28;20026;-65
2023/01/19 12:25:01;;;;;;;;;;;18.90;42.20;;;;;;5051269;28;19921;-63
2023/01/19 12:27:33;;;;;;;;;;;18.90;42.20;;;;;;5051082;28;19921;-62
2023/01/19 12:30:00;;;;;;;;;;;18.90;42.20;;;;;;5084154;28;19971;-63
2023/01/19 12:32:32;;;;;;;;;;;18.90;42.20;;;;;;5084306;28;19933;-63
2023/01/19 12:34:59;;;;;;;;;;;18.90;42.20;;;;;;5050223;28;19955;-63
2023/01/19 12:37:44;;;;;;;;;;;18.90;42.20;;;;;;5084330;28;19925;-63
2023/01/19 12:40:21;;;;;;;;;;;18.90;42.20;;;;;;5051820;28;19925;-63
2023/01/19 12:42:51;;;;;;;;;;;18.90;42.20;;;;;;5052047;28;19928;-63
2023/01/19 12:45:18;;;;;;;;;;;18.90;42.20;;;;;;5050785;28;19964;-63
2023/01/19 12:47:50;;;;;;;;;;;18.90;42.20;;;;;;5050500;28;19924;-63
2023/01/19 12:50:18;;;;;;;;;;;18.90;42.20;;;;;;5083929;28;19921;-63
2023/01/19 12:52:50;;;;;;;;;;;18.90;42.20;;;;;;5084172;28;20343;-63
2023/01/19 12:55:20;;;;;;;;;;;18.90;42.20;;;;;;5084054;28;20273;-64
2023/01/19 12:57:48;;;;;;;;;;;18.90;42.20;;;;;;5084104;28;19952;-64
2023/01/19 13:00:28;;;;;;;;;;;18.90;42.20;;;;;;5051518;28;20267;-64
2023/01/19 13:02:54;;;;;;;;;;;18.90;42.20;;;;;;5083606;28;19964;-63
2023/01/19 13:05:26;;;;;;;;;;;18.90;42.20;;;;;;5051847;28;19951;-63
2023/01/19 13:08:12;;;;;;;;;;;18.90;42.20;;;;;;5050408;28;19921;-63
2023/01/19 13:11:09;;;;;;;;;;;18.90;42.20;;;;;;5049916;28;20074;-64
2023/01/19 13:13:37;;;;;;;;;;;18.90;42.30;;;;;;5050271;28;20290;-63
2023/01/19 13:16:19;;;;;;;;;;;18.90;42.20;;;;;;5051437;28;19924;-64
2023/01/19 13:18:47;;;;;;;;;;;18.90;42.30;;;;;;5082338;28;20027;-63
2023/01/19 13:21:14;;;;;;;;;;;18.90;42.30;;;;;;5049911;28;19925;-64
2023/01/19 13:23:51;;;;;;;;;;;18.90;42.30;;;;;;5050243;28;19972;-63
2023/01/19 13:26:18;;;;;;;;;;;18.90;42.30;;;;;;5051361;28;19947;-64
2023/01/19 13:28:47;;;;;;;;;;;18.90;42.30;;;;;;5049700;28;19924;-63
2023/01/19 13:31:14;;;;;;;;;;;18.90;42.30;;;;;;5049761;28;20035;-63
2023/01/19 13:33:49;;;;;;;;;;;18.90;42.30;;;;;;5049649;28;19920;-64
2023/01/19 13:36:25;;;;;;;;;;;18.90;42.30;;;;;;5049645;28;19920;-64
2023/01/19 13:38:51;;;;;;;;;;;18.90;42.30;;;;;;5051150;28;19920;-64
2023/01/19 13:41:19;;;;;;;;;;;18.90;42.30;;;;;;5050006;28;19925;-65
2023/01/19 13:43:47;;;;;;;;;;;18.90;42.30;;;;;;5049509;28;19967;-63
2023/01/19 13:46:16;;;;;;;;;;;18.90;42.40;;;;;;5050407;28;19924;-64
2023/01/19 13:48:51;;;;;;;;;;;18.90;42.40;;;;;;5049348;28;20275;-64
2023/01/19 13:51:18;;;;;;;;;;;18.90;42.30;;;;;;5050850;28;19928;-64
2023/01/19 13:53:52;;;;;;;;;;;18.90;42.30;;;;;;5049724;28;19920;-64
2023/01/19 13:56:20;;;;;;;;;;;18.90;42.40;;;;;;5051565;28;19928;-62
2023/01/19 13:59:03;;;;;;;;;;;18.90;42.40;;;;;;5049219;28;19980;-63
2023/01/19 14:01:31;;;;;;;;;;;18.90;42.40;;;;;;5082813;28;19920;-64
2023/01/19 14:03:58;;;;;;;;;;;18.90;42.90;;;;;;5050330;28;19931;-64
2023/01/19 14:06:31;;;;;;;;;;;18.90;42.40;;;;;;5050845;28;19971;-64
2023/01/19 14:09:22;;;;;;;;;;;18.90;42.40;;;;;;5082628;28;19927;-64
2023/01/19 14:12:03;;;;;;;;;;;18.90;42.40;;;;;;5038902;28;19921;-63
2023/01/19 14:14:31;;;;;;;;;;;18.90;42.40;;;;;;5049828;28;19921;-63
2023/01/19 14:16:58;;;;;;;;;;;18.90;42.40;;;;;;5082452;28;19921;-64
2023/01/19 14:19:25;;;;;;;;;;;18.90;42.40;;;;;;5050397;28;19998;-63
2023/01/19 14:21:59;;;;;;;;;;;18.90;43.00;;;;;;5082604;28;19932;-63
2023/01/19 14:24:28;;;;;;;;;;;18.90;42.40;;;;;;5050802;28;19921;-62
2023/01/19 14:27:06;;;;;;;;;;;18.90;42.40;;;;;;5050122;28;19920;-63
2023/01/19 14:29:34;;;;;;;;;;;18.90;42.40;;;;;;5048647;28;19921;-63
2023/01/19 14:32:12;;;;;;;;;;;18.90;42.40;;;;;;5048615;28;19925;-64
2023/01/19 14:34:40;;;;;;;;;;;18.90;42.40;;;;;;5048890;28;19944;-64